Overview Statistics Trail Chart Weather Telemetry Raw packets
 

This is the latest recevied weather packets stored in our database for station/object I1SXT-13. If no packets are shown the sender has not sent any weather packets the latest 10 day(s).

<< 1 2 3 4 5 6 >>
Time Temp. Humidity Pressure Rain* Wind** Luminosity Snow
1788517467 28.33° C 66% 1023.2 hPa 0 mm - - -
1788515963 27.78° C 68% 1022.5 hPa 0 mm - - -
1788514762 27.78° C 69% 1023.1 hPa 0 mm - - -
1788513568 27.78° C 68% 1023.1 hPa 0 mm - - -
1788506666 23.33° C 72% 1022.7 hPa 0 mm - - -
1788504265 21.67° C 77% 1022.1 hPa 0 mm - - -
1788499166 20.56° C 78% 1022.7 hPa 0 mm - - -
1788494964 21.11° C 78% 1023 hPa 0 mm - - -
1788494667 20.56° C 79% 1022.7 hPa 0 mm - - -
1788488668 21.11° C 82% 1022.6 hPa 0 mm - - -
1788488365 21.11° C 82% 1022.5 hPa 0 mm - - -
1788486866 21.67° C 80% 1022.1 hPa 0 mm - - -
1788485064 21.67° C 82% 1021.6 hPa 0 mm - - -
1788484765 21.67° C 83% 1021.7 hPa 0 mm - - -
1788482066 23.33° C 77% 1021.5 hPa 0 mm - - -
1788480563 23.89° C 72% 1021.7 hPa 0 mm - - -
1788479964 24.44° C 72% 1022 hPa 0 mm - - -
1788479063 23.89° C 73% 1022.6 hPa 0 mm - - -
1788478763 23.89° C 74% 1022.3 hPa 0 mm - - -
1788478174 23.33° C 76% 1022 hPa 0 mm - - -
1788477568 23.33° C 78% 1022 hPa 0 mm - - -
1788475466 23.33° C 77% 1022 hPa 0 mm - - -
1788475165 23.89° C 76% 1021.6 hPa 0 mm - - -
1788474865 23.89° C 76% 1022.4 hPa 0 mm - - -
1788473062 23.33° C 79% 1022.3 hPa 0 mm - - -

* Rain since midnight (hover to see other rain measurements)
** Current wind speed in m/s (hover to see current wind gust speed)